Time;durP1;ratioP1;P1;durP2;ratioP2;P2;SDS_P1;SDS_P2;PMS_P1;PMS_P2;Temp;Humidity;BMP_temperature;BMP_pressure;BME280_temperature;BME280_humidity;BME280_pressure;Samples;Min_cycle;Max_cycle;Signal;HPM_P1;HPM_P2
2022/08/25 00:01:13;;;;;;;40.22;7.65;;;;;;;;;;4954024;28;20031;-59
2022/08/25 00:03:41;;;;;;;46.63;7.25;;;;;;;;;;4953841;28;20482;-60
2022/08/25 00:06:08;;;;;;;105.95;10.90;;;;;;;;;;4953742;28;20034;-57
2022/08/25 00:08:36;;;;;;;58.40;8.00;;;;;;;;;;4954062;28;20062;-59
2022/08/25 00:11:12;;;;;;;41.53;7.72;;;;;;;;;;4953042;28;20031;-58
2022/08/25 00:14:00;;;;;;;36.40;8.02;;;;;;;;;;4952463;28;20374;-58
2022/08/25 00:16:30;;;;;;;46.67;7.80;;;;;;;;;;4953244;28;20077;-57
2022/08/25 00:18:58;;;;;;;47.53;7.93;;;;;;;;;;4953547;28;20062;-57
2022/08/25 00:21:25;;;;;;;40.45;7.07;;;;;;;;;;4952408;28;20031;-58
2022/08/25 00:23:52;;;;;;;34.15;7.00;;;;;;;;;;4953608;28;20031;-58
2022/08/25 00:26:20;;;;;;;43.30;7.75;;;;;;;;;;4953360;28;20028;-57
2022/08/25 00:28:47;;;;;;;44.28;8.40;;;;;;;;;;4952624;28;20035;-58
2022/08/25 00:31:17;;;;;;;41.90;7.97;;;;;;;;;;4952843;28;20023;-58
2022/08/25 00:33:45;;;;;;;42.60;7.35;;;;;;;;;;4953135;28;20493;-58
2022/08/25 00:36:12;;;;;;;48.40;7.20;;;;;;;;;;4951880;28;20039;-58
2022/08/25 00:38:39;;;;;;;38.83;7.15;;;;;;;;;;4953009;28;20023;-56
2022/08/25 00:41:07;;;;;;;46.80;8.05;;;;;;;;;;4951239;28;20031;-57
2022/08/25 00:43:54;;;;;;;37.20;8.15;;;;;;;;;;4953289;28;20031;-56
2022/08/25 00:46:23;;;;;;;38.47;7.13;;;;;;;;;;4952433;28;20039;-60
2022/08/25 00:48:55;;;;;;;50.35;10.65;;;;;;;;;;4953209;28;20034;-58
2022/08/25 00:51:27;;;;;;;49.83;12.50;;;;;;;;;;4953441;28;20059;-59
2022/08/25 00:53:55;;;;;;;59.65;11.57;;;;;;;;;;4951696;28;20434;-58
2022/08/25 00:56:22;;;;;;;40.97;11.63;;;;;;;;;;4953062;28;20046;-58
2022/08/25 00:58:50;;;;;;;45.20;11.40;;;;;;;;;;4951820;28;20129;-58
2022/08/25 01:01:17;;;;;;;50.55;12.02;;;;;;;;;;4952599;28;20035;-58
2022/08/25 01:03:44;;;;;;;45.85;12.13;;;;;;;;;;4952334;29;20058;-58
2022/08/25 01:06:11;;;;;;;45.53;11.77;;;;;;;;;;4951846;29;20034;-58
2022/08/25 01:08:38;;;;;;;53.47;12.30;;;;;;;;;;4951971;28;20031;-57
2022/08/25 01:11:06;;;;;;;56.60;13.75;;;;;;;;;;4952085;29;20452;-58
2022/08/25 01:13:47;;;;;;;55.30;14.82;;;;;;;;;;4952196;28;20031;-58
2022/08/25 01:16:14;;;;;;;57.55;17.60;;;;;;;;;;4956116;28;20043;-58
2022/08/25 01:18:46;;;;;;;59.35;16.67;;;;;;;;;;4955190;28;20046;-58
2022/08/25 01:21:14;;;;;;;60.97;16.58;;;;;;;;;;4953666;28;20508;-59
2022/08/25 01:23:41;;;;;;;65.20;16.25;;;;;;;;;;4936741;29;20035;-59
2022/08/25 01:26:11;;;;;;;55.97;17.50;;;;;;;;;;4959385;28;20477;-57
2022/08/25 01:29:19;;;;;;;59.28;15.45;;;;;;;;;;4953905;29;20031;-58
2022/08/25 01:31:25;;;;;;;52.05;14.88;;;;;;;;;;4954061;29;20450;-54
2022/08/25 01:33:52;;;;;;;44.35;14.15;;;;;;;;;;4953998;29;20047;-55
2022/08/25 01:36:20;;;;;;;52.00;14.88;;;;;;;;;;4953960;29;20507;-57
2022/08/25 01:38:47;;;;;;;53.47;13.05;;;;;;;;;;4954025;29;20051;-57
2022/08/25 01:41:22;;;;;;;53.47;12.82;;;;;;;;;;4953674;29;20031;-56
2022/08/25 01:43:49;;;;;;;46.92;12.50;;;;;;;;;;4954044;29;20102;-56
2022/08/25 01:46:16;;;;;;;48.63;12.65;;;;;;;;;;4954001;29;20063;-57
2022/08/25 01:48:43;;;;;;;43.58;11.32;;;;;;;;;;4953738;29;20114;-57
2022/08/25 01:51:10;;;;;;;45.13;11.93;;;;;;;;;;4953739;29;20027;-54
2022/08/25 01:53:37;;;;;;;54.20;11.50;;;;;;;;;;4953524;29;20027;-56
2022/08/25 01:56:15;;;;;;;37.85;10.15;;;;;;;;;;4953604;29;20031;-58
2022/08/25 01:58:44;;;;;;;37.95;10.18;;;;;;;;;;4955712;28;20039;-58
2022/08/25 02:01:19;;;;;;;41.20;10.70;;;;;;;;;;4955883;29;20504;-58
2022/08/25 02:03:48;;;;;;;48.83;11.05;;;;;;;;;;4955647;29;20035;-55
2022/08/25 02:06:17;;;;;;;39.65;9.90;;;;;;;;;;4958373;28;20035;-56
2022/08/25 02:08:45;;;;;;;42.30;9.57;;;;;;;;;;4956443;28;20031;-54
2022/08/25 02:11:13;;;;;;;38.13;9.52;;;;;;;;;;4956443;28;20023;-57
2022/08/25 02:13:41;;;;;;;42.13;9.88;;;;;;;;;;4956870;29;20035;-59
2022/08/25 02:16:09;;;;;;;34.78;8.73;;;;;;;;;;4954009;28;20086;-57
2022/08/25 02:18:36;;;;;;;32.78;8.48;;;;;;;;;;4955833;28;20027;-56
2022/08/25 02:21:03;;;;;;;35.22;8.93;;;;;;;;;;4955394;28;20039;-58
2022/08/25 02:23:30;;;;;;;33.85;9.10;;;;;;;;;;4954906;28;20027;-58
2022/08/25 02:25:57;;;;;;;30.35;8.60;;;;;;;;;;4954523;28;20039;-54
2022/08/25 02:28:24;;;;;;;33.22;8.43;;;;;;;;;;4955041;28;20034;-58
2022/08/25 02:30:51;;;;;;;29.48;8.27;;;;;;;;;;4953795;28;20094;-55
2022/08/25 02:33:19;;;;;;;33.95;8.38;;;;;;;;;;4954274;28;20059;-59
2022/08/25 02:35:46;;;;;;;31.30;7.40;;;;;;;;;;4954726;28;20039;-58
2022/08/25 02:38:13;;;;;;;28.95;7.90;;;;;;;;;;4955195;28;20031;-58
2022/08/25 02:40:40;;;;;;;31.73;8.57;;;;;;;;;;4955485;28;20039;-57
2022/08/25 02:43:07;;;;;;;25.98;7.25;;;;;;;;;;4955989;28;20030;-57
2022/08/25 02:45:34;;;;;;;37.60;8.30;;;;;;;;;;4955014;28;20072;-57
2022/08/25 02:48:01;;;;;;;29.67;7.80;;;;;;;;;;4955204;28;20035;-58
2022/08/25 02:50:28;;;;;;;27.80;6.82;;;;;;;;;;4954975;28;20031;-57
2022/08/25 02:52:55;;;;;;;27.42;7.32;;;;;;;;;;4954972;28;20035;-55
2022/08/25 02:55:22;;;;;;;26.10;7.57;;;;;;;;;;4954932;28;20118;-56
2022/08/25 02:57:50;;;;;;;22.90;6.55;;;;;;;;;;4955293;28;20074;-58
2022/08/25 03:00:18;;;;;;;28.75;7.43;;;;;;;;;;4954933;28;20042;-58
2022/08/25 03:02:46;;;;;;;29.63;6.43;;;;;;;;;;4955535;28;20055;-57
2022/08/25 03:05:14;;;;;;;28.33;7.20;;;;;;;;;;4954873;28;20437;-58
2022/08/25 03:07:41;;;;;;;26.45;6.78;;;;;;;;;;4955429;28;20070;-59
2022/08/25 03:10:10;;;;;;;46.92;7.15;;;;;;;;;;4954420;28;20031;-59
2022/08/25 03:12:37;;;;;;;30.80;7.20;;;;;;;;;;4955484;28;20047;-60
2022/08/25 03:15:04;;;;;;;31.10;6.55;;;;;;;;;;4955386;28;20030;-59
2022/08/25 03:17:31;;;;;;;21.92;6.20;;;;;;;;;;4954893;28;20054;-59
2022/08/25 03:19:58;;;;;;;29.85;6.78;;;;;;;;;;4954886;28;20058;-58
2022/08/25 03:22:25;;;;;;;21.90;6.10;;;;;;;;;;4954890;28;20086;-60
2022/08/25 03:26:52;;;;;;;24.95;6.07;;;;;;;;;;4955382;28;20130;-58
2022/08/25 03:27:39;;;;;;;22.80;6.10;;;;;;;;;;4955459;29;20035;-61
2022/08/25 03:30:06;;;;;;;24.73;6.20;;;;;;;;;;4955420;29;20078;-59
2022/08/25 03:32:33;;;;;;;23.52;5.57;;;;;;;;;;4953869;29;20038;-59
2022/08/25 03:35:00;;;;;;;24.48;6.60;;;;;;;;;;4955544;29;20051;-58
2022/08/25 03:37:27;;;;;;;20.05;5.13;;;;;;;;;;4955340;29;20035;-59
2022/08/25 03:39:54;;;;;;;18.88;5.30;;;;;;;;;;4955018;28;20074;-58
2022/08/25 03:42:21;;;;;;;16.88;5.22;;;;;;;;;;4954853;28;20477;-58
2022/08/25 03:44:48;;;;;;;17.65;5.35;;;;;;;;;;4954574;28;20035;-60
2022/08/25 03:47:15;;;;;;;19.08;5.72;;;;;;;;;;4954789;28;20037;-59
2022/08/25 03:49:42;;;;;;;17.38;4.90;;;;;;;;;;4954903;28;20525;-59
2022/08/25 03:52:09;;;;;;;17.48;4.85;;;;;;;;;;4955413;29;20038;-58
2022/08/25 03:54:36;;;;;;;18.95;5.03;;;;;;;;;;4962321;28;20097;-58
2022/08/25 03:57:03;;;;;;;23.15;4.82;;;;;;;;;;4962836;28;20038;-59
2022/08/25 03:59:30;;;;;;;17.10;5.65;;;;;;;;;;4955198;29;20418;-59
2022/08/25 04:01:57;;;;;;;23.02;4.72;;;;;;;;;;4953673;29;20027;-59
2022/08/25 04:04:24;;;;;;;22.00;5.05;;;;;;;;;;4954371;29;20031;-57
2022/08/25 04:06:51;;;;;;;17.65;4.70;;;;;;;;;;4954834;28;20038;-58
2022/08/25 04:09:18;;;;;;;17.05;4.93;;;;;;;;;;4965520;28;20166;-58
2022/08/25 04:11:45;;;;;;;14.63;4.35;;;;;;;;;;4957607;28;20077;-58
2022/08/25 04:14:14;;;;;;;12.55;4.63;;;;;;;;;;4954958;29;20027;-57
2022/08/25 04:16:41;;;;;;;16.33;4.93;;;;;;;;;;4955016;29;20043;-58
2022/08/25 04:19:09;;;;;;;13.00;4.30;;;;;;;;;;4955005;29;20050;-58
2022/08/25 04:21:39;;;;;;;16.08;4.70;;;;;;;;;;4954013;28;20034;-58
2022/08/25 04:24:07;;;;;;;12.73;4.22;;;;;;;;;;4953604;29;20508;-57
2022/08/25 04:26:36;;;;;;;18.63;4.10;;;;;;;;;;4954884;29;20027;-57
2022/08/25 04:29:05;;;;;;;12.27;3.72;;;;;;;;;;4954833;29;20096;-56
2022/08/25 04:31:33;;;;;;;11.05;4.22;;;;;;;;;;4954851;29;20039;-57
2022/08/25 04:34:02;;;;;;;10.73;4.18;;;;;;;;;;4954645;29;20057;-55
2022/08/25 04:36:29;;;;;;;13.68;4.28;;;;;;;;;;4954698;29;20496;-55
2022/08/25 04:38:55;;;;;;;13.38;3.38;;;;;;;;;;4954738;29;20027;-56
2022/08/25 04:41:23;;;;;;;17.95;3.80;;;;;;;;;;4954551;29;20037;-55
2022/08/25 04:43:51;;;;;;;12.57;3.92;;;;;;;;;;4954699;29;20031;-57
2022/08/25 04:46:20;;;;;;;9.88;3.38;;;;;;;;;;4953427;29;20031;-58
2022/08/25 04:48:47;;;;;;;9.85;4.05;;;;;;;;;;4954597;29;20078;-51
2022/08/25 04:51:17;;;;;;;12.60;3.67;;;;;;;;;;4954379;29;20031;-56
2022/08/25 04:53:44;;;;;;;9.20;3.55;;;;;;;;;;4954594;29;20023;-56
2022/08/25 04:56:13;;;;;;;11.95;3.65;;;;;;;;;;4954429;29;20035;-55
2022/08/25 04:58:41;;;;;;;8.23;3.10;;;;;;;;;;4954545;29;20026;-54
2022/08/25 05:01:10;;;;;;;6.38;3.13;;;;;;;;;;4954458;29;20058;-54
2022/08/25 05:03:37;;;;;;;10.52;3.50;;;;;;;;;;4954349;29;20031;-55
2022/08/25 05:06:05;;;;;;;7.90;3.10;;;;;;;;;;4954484;29;20019;-58
2022/08/25 05:08:32;;;;;;;9.15;3.17;;;;;;;;;;4954193;29;20032;-57
2022/08/25 05:10:59;;;;;;;12.55;2.83;;;;;;;;;;4954381;29;20102;-57
2022/08/25 05:13:26;;;;;;;8.40;3.40;;;;;;;;;;4954269;29;20051;-57
2022/08/25 05:15:54;;;;;;;9.75;3.00;;;;;;;;;;4953891;29;20078;-57
2022/08/25 05:18:22;;;;;;;8.18;2.60;;;;;;;;;;4953843;29;20043;-56
2022/08/25 05:20:50;;;;;;;7.30;2.60;;;;;;;;;;4970252;28;20030;-58
2022/08/25 05:23:17;;;;;;;7.28;2.38;;;;;;;;;;4973463;28;20023;-58
2022/08/25 05:25:44;;;;;;;7.78;2.70;;;;;;;;;;4973417;28;20042;-55
2022/08/25 05:28:11;;;;;;;8.55;2.60;;;;;;;;;;4973499;28;20110;-55
2022/08/25 05:30:39;;;;;;;5.63;2.65;;;;;;;;;;4973367;28;20078;-57
2022/08/25 05:33:06;;;;;;;6.35;2.85;;;;;;;;;;4974796;28;20509;-56
2022/08/25 05:35:33;;;;;;;7.97;3.08;;;;;;;;;;4977365;28;20022;-56
2022/08/25 05:38:00;;;;;;;7.50;2.72;;;;;;;;;;4977159;28;20035;-54
2022/08/25 05:40:27;;;;;;;8.02;2.40;;;;;;;;;;4977198;28;20563;-57
2022/08/25 05:42:54;;;;;;;8.45;2.47;;;;;;;;;;4977078;28;20062;-58
2022/08/25 05:45:21;;;;;;;8.93;2.67;;;;;;;;;;4976926;28;20101;-57
2022/08/25 05:47:48;;;;;;;4.72;2.42;;;;;;;;;;4977086;28;20031;-58
2022/08/25 05:50:16;;;;;;;5.10;2.30;;;;;;;;;;4976960;28;20057;-58
2022/08/25 05:52:43;;;;;;;5.47;2.20;;;;;;;;;;4976980;28;20039;-58
2022/08/25 05:55:11;;;;;;;5.88;2.20;;;;;;;;;;4976701;28;20031;-55
2022/08/25 05:57:38;;;;;;;5.18;2.53;;;;;;;;;;4976900;28;20114;-56
2022/08/25 06:00:05;;;;;;;6.50;2.22;;;;;;;;;;4976720;28;20031;-53
2022/08/25 06:02:48;;;;;;;6.53;2.42;;;;;;;;;;4972518;28;20031;-58
2022/08/25 06:05:15;;;;;;;;;;;;;;;;;;4977078;28;20031;-58
2022/08/25 06:07:42;;;;;;;6.57;2.05;;;;;;;;;;4976376;28;19909;-58
2022/08/25 06:10:12;;;;;;;5.40;2.22;;;;;;;;;;4976568;28;20023;-57
2022/08/25 06:12:43;;;;;;;7.57;2.53;;;;;;;;;;4976558;28;20489;-58
2022/08/25 06:15:10;;;;;;;5.65;2.20;;;;;;;;;;4976410;28;20457;-57
2022/08/25 06:17:41;;;;;;;3.17;1.90;;;;;;;;;;4976498;28;20034;-57
2022/08/25 06:20:15;;;;;;;4.15;1.90;;;;;;;;;;4976168;28;20054;-57
2022/08/25 06:22:43;;;;;;;4.57;2.05;;;;;;;;;;4976192;28;20069;-57
2022/08/25 06:25:11;;;;;;;4.85;2.13;;;;;;;;;;4976269;28;20034;-55
2022/08/25 06:27:38;;;;;;;3.97;1.90;;;;;;;;;;4976308;28;20027;-53
2022/08/25 06:30:09;;;;;;;4.10;1.85;;;;;;;;;;4976190;28;20085;-54
2022/08/25 06:32:36;;;;;;;4.70;2.15;;;;;;;;;;4976080;28;20109;-55
2022/08/25 06:35:08;;;;;;;5.25;2.17;;;;;;;;;;4976112;28;20055;-54
2022/08/25 06:37:35;;;;;;;3.10;1.73;;;;;;;;;;4976155;28;20027;-54
2022/08/25 06:40:02;;;;;;;5.97;2.30;;;;;;;;;;4975985;28;20031;-51
2022/08/25 06:42:37;;;;;;;6.30;2.05;;;;;;;;;;4976027;28;20106;-57
2022/08/25 06:45:05;;;;;;;3.50;1.80;;;;;;;;;;4976037;28;20029;-54
2022/08/25 06:47:32;;;;;;;4.60;2.22;;;;;;;;;;4975782;28;20035;-57
2022/08/25 06:49:59;;;;;;;4.20;1.73;;;;;;;;;;4975908;28;20019;-55
2022/08/25 06:52:26;;;;;;;2.60;1.60;;;;;;;;;;4975959;28;20027;-55
2022/08/25 06:54:53;;;;;;;4.18;1.77;;;;;;;;;;4975842;28;20421;-54
2022/08/25 06:57:20;;;;;;;4.22;1.85;;;;;;;;;;4975677;28;20388;-51
2022/08/25 06:59:48;;;;;;;4.03;1.90;;;;;;;;;;4975557;28;20035;-57
2022/08/25 07:02:14;;;;;;;4.28;1.80;;;;;;;;;;4975699;28;20381;-56
2022/08/25 07:04:41;;;;;;;5.05;2.13;;;;;;;;;;4975645;28;20019;-55
2022/08/25 07:07:08;;;;;;;4.70;2.20;;;;;;;;;;4975648;28;20089;-53
2022/08/25 07:09:35;;;;;;;3.90;1.90;;;;;;;;;;4975421;28;20029;-53
2022/08/25 07:12:03;;;;;;;4.15;1.85;;;;;;;;;;4975431;28;20058;-57
2022/08/25 07:14:35;;;;;;;2.67;1.73;;;;;;;;;;4975581;28;20385;-56
2022/08/25 07:17:02;;;;;;;4.10;1.67;;;;;;;;;;4987213;28;20057;-57
2022/08/25 07:19:29;;;;;;;4.13;2.22;;;;;;;;;;4994873;28;20038;-58
2022/08/25 07:21:56;;;;;;;4.03;2.00;;;;;;;;;;4994746;28;20022;-58
2022/08/25 07:24:24;;;;;;;3.58;1.83;;;;;;;;;;4994638;28;20080;-56
2022/08/25 07:26:51;;;;;;;2.40;1.48;;;;;;;;;;4994705;28;20524;-56
2022/08/25 07:29:20;;;;;;;3.55;1.88;;;;;;;;;;4994463;28;20109;-57
2022/08/25 07:31:48;;;;;;;3.00;1.60;;;;;;;;;;4994713;28;20408;-57
2022/08/25 07:37:03;;;;;;;4.63;2.10;;;;;;;;;;4994465;28;20457;-56
2022/08/25 07:39:30;;;;;;;4.70;1.80;;;;;;;;;;4994237;28;20023;-57
2022/08/25 07:41:57;;;;;;;2.90;1.80;;;;;;;;;;4994312;28;20022;-56
2022/08/25 07:44:24;;;;;;;2.72;1.50;;;;;;;;;;4994236;28;20034;-58
2022/08/25 07:46:52;;;;;;;4.80;1.83;;;;;;;;;;4994321;28;20022;-56
2022/08/25 07:49:19;;;;;;;3.00;1.90;;;;;;;;;;4994320;28;20506;-57
2022/08/25 07:51:46;;;;;;;3.10;1.80;;;;;;;;;;4994174;28;20447;-58
2022/08/25 07:54:13;;;;;;;2.75;1.90;;;;;;;;;;4994087;28;20027;-58
2022/08/25 07:56:41;;;;;;;2.03;1.50;;;;;;;;;;4993532;28;20037;-58
2022/08/25 07:59:09;;;;;;;3.63;1.63;;;;;;;;;;4993808;28;20374;-57
2022/08/25 08:01:36;;;;;;;2.15;1.40;;;;;;;;;;4994038;28;20027;-56
2022/08/25 08:04:04;;;;;;;3.03;1.45;;;;;;;;;;4993954;28;20022;-57
2022/08/25 08:06:31;;;;;;;3.53;1.80;;;;;;;;;;4993973;28;20039;-57
2022/08/25 08:08:58;;;;;;;2.33;1.45;;;;;;;;;;4993842;28;20034;-57
2022/08/25 08:11:30;;;;;;;3.22;1.40;;;;;;;;;;4993731;28;20110;-57
2022/08/25 08:13:58;;;;;;;4.55;1.77;;;;;;;;;;4993728;28;20037;-58
2022/08/25 08:16:25;;;;;;;2.63;1.45;;;;;;;;;;4993593;28;20084;-56
2022/08/25 08:18:52;;;;;;;2.85;1.63;;;;;;;;;;4993676;28;20026;-57
2022/08/25 08:21:25;;;;;;;3.45;1.60;;;;;;;;;;4993659;28;20165;-58
2022/08/25 08:23:53;;;;;;;4.22;1.70;;;;;;;;;;4993626;28;20023;-57
2022/08/25 08:26:20;;;;;;;2.30;1.30;;;;;;;;;;4993728;28;20113;-58
2022/08/25 08:28:47;;;;;;;3.15;1.40;;;;;;;;;;4993469;28;20169;-56
2022/08/25 08:31:18;;;;;;;1.77;1.20;;;;;;;;;;4993487;28;20034;-57
2022/08/25 08:33:46;;;;;;;2.67;1.50;;;;;;;;;;4993237;28;20059;-57
2022/08/25 08:36:13;;;;;;;2.30;1.40;;;;;;;;;;4993204;28;20034;-57
2022/08/25 08:38:41;;;;;;;2.00;1.50;;;;;;;;;;4993281;28;20030;-57
2022/08/25 08:44:18;;;;;;;3.25;1.45;;;;;;;;;;4993310;28;20118;-57
2022/08/25 08:47:15;;;;;;;2.05;1.38;;;;;;;;;;4993216;28;20396;-55
2022/08/25 08:49:57;;;;;;;2.53;1.63;;;;;;;;;;4908592;28;20076;-56
2022/08/25 08:52:32;;;;;;;3.80;1.77;;;;;;;;;;4993161;28;20080;-57
2022/08/25 08:55:01;;;;;;;2.40;1.20;;;;;;;;;;4993346;28;20456;-57
2022/08/25 08:57:29;;;;;;;1.80;1.23;;;;;;;;;;4993149;28;20035;-57
2022/08/25 08:59:59;;;;;;;5.18;1.70;;;;;;;;;;4992998;28;20400;-56
2022/08/25 09:02:40;;;;;;;2.08;1.45;;;;;;;;;;4992986;28;20457;-57
2022/08/25 09:05:10;;;;;;;2.60;1.48;;;;;;;;;;4993071;28;20037;-57
2022/08/25 09:07:43;;;;;;;4.00;1.75;;;;;;;;;;4993912;28;20034;-57
2022/08/25 09:10:10;;;;;;;5.13;1.42;;;;;;;;;;4997261;28;20033;-57
2022/08/25 09:12:55;;;;;;;2.75;1.50;;;;;;;;;;4997386;28;20034;-57
2022/08/25 09:18:34;;;;;;;2.58;1.20;;;;;;;;;;4997380;28;20077;-57
2022/08/25 09:21:13;;;;;;;1.95;1.20;;;;;;;;;;4996973;28;20038;-57
2022/08/25 09:23:40;;;;;;;2.13;1.20;;;;;;;;;;4996945;28;20022;-57
2022/08/25 09:26:19;;;;;;;3.80;1.73;;;;;;;;;;4996911;28;20030;-58
2022/08/25 09:28:53;;;;;;;4.03;1.45;;;;;;;;;;4996784;28;20562;-57
2022/08/25 09:31:30;;;;;;;3.15;1.20;;;;;;;;;;4996797;28;20053;-57
2022/08/25 09:34:00;;;;;;;1.92;1.15;;;;;;;;;;4996571;28;20062;-57
2022/08/25 09:36:27;;;;;;;2.67;1.20;;;;;;;;;;4996691;28;20084;-57
2022/08/25 09:38:54;;;;;;;2.35;1.27;;;;;;;;;;4996554;28;20084;-57
2022/08/25 09:41:39;;;;;;;6.45;1.25;;;;;;;;;;4996712;28;20033;-58
2022/08/25 09:44:16;;;;;;;3.75;1.30;;;;;;;;;;4996643;28;20026;-57
2022/08/25 09:46:54;;;;;;;5.47;1.58;;;;;;;;;;4996638;28;20031;-58
2022/08/25 09:49:21;;;;;;;6.35;1.40;;;;;;;;;;4996296;28;20481;-57
2022/08/25 09:51:48;;;;;;;5.70;1.30;;;;;;;;;;4996308;28;20022;-58
2022/08/25 09:54:15;;;;;;;4.97;1.58;;;;;;;;;;4996092;28;20026;-57
2022/08/25 09:56:52;;;;;;;3.00;1.48;;;;;;;;;;4990821;28;20059;-55
2022/08/25 09:59:19;;;;;;;4.45;1.40;;;;;;;;;;4996070;28;20106;-55
2022/08/25 10:01:50;;;;;;;4.47;1.48;;;;;;;;;;4996110;28;20153;-55
2022/08/25 10:04:25;;;;;;;4.47;1.67;;;;;;;;;;4996101;28;20027;-56
2022/08/25 10:06:52;;;;;;;3.88;1.58;;;;;;;;;;4995966;28;20026;-55
2022/08/25 10:09:25;;;;;;;2.63;1.40;;;;;;;;;;4996119;28;20022;-56
2022/08/25 10:11:52;;;;;;;3.53;1.42;;;;;;;;;;4996031;28;20037;-54
2022/08/25 10:14:27;;;;;;;4.22;1.15;;;;;;;;;;4996106;28;20556;-57
2022/08/25 10:17:11;;;;;;;3.95;1.30;;;;;;;;;;4995794;28;20438;-58
2022/08/25 10:19:38;;;;;;;6.80;1.48;;;;;;;;;;4995421;28;20026;-57
2022/08/25 10:22:07;;;;;;;3.33;1.27;;;;;;;;;;4995887;28;20026;-57
2022/08/25 10:24:34;;;;;;;7.70;1.50;;;;;;;;;;4974508;28;20489;-57
2022/08/25 10:27:06;;;;;;;4.03;1.20;;;;;;;;;;4956655;29;20074;-58
2022/08/25 10:29:49;;;;;;;4.40;1.60;;;;;;;;;;4957134;29;20111;-57
2022/08/25 10:32:18;;;;;;;4.18;1.40;;;;;;;;;;4957082;29;20090;-57
2022/08/25 10:35:08;;;;;;;6.25;1.20;;;;;;;;;;4956819;29;20051;-58
2022/08/25 10:37:35;;;;;;;5.57;1.50;;;;;;;;;;4949283;29;20046;-58
2022/08/25 10:40:20;;;;;;;3.00;1.15;;;;;;;;;;4956734;29;20058;-57
2022/08/25 10:43:26;;;;;;;7.28;1.30;;;;;;;;;;4956943;29;20027;-58
2022/08/25 10:46:02;;;;;;;8.20;1.55;;;;;;;;;;4897597;29;20124;-58
2022/08/25 10:48:38;;;;;;;5.53;1.55;;;;;;;;;;4897560;29;20503;-57
2022/08/25 10:51:17;;;;;;;4.95;1.83;;;;;;;;;;4933408;29;20031;-58
2022/08/25 10:53:47;;;;;;;17.45;2.13;;;;;;;;;;4956637;29;20035;-58
2022/08/25 10:56:20;;;;;;;12.88;2.10;;;;;;;;;;4956415;29;20031;-57
2022/08/25 10:59:25;;;;;;;8.40;1.67;;;;;;;;;;4956450;29;20055;-58
2022/08/25 11:02:10;;;;;;;8.82;1.65;;;;;;;;;;4897368;29;20039;-57
2022/08/25 11:04:43;;;;;;;9.73;1.75;;;;;;;;;;4897340;29;20033;-58
2022/08/25 11:07:19;;;;;;;15.35;1.95;;;;;;;;;;4936193;29;20043;-57
2022/08/25 11:09:48;;;;;;;9.88;1.80;;;;;;;;;;4956313;29;20568;-58
2022/08/25 11:12:30;;;;;;;6.50;1.30;;;;;;;;;;4956445;29;20027;-57
2022/08/25 11:15:07;;;;;;;7.35;1.60;;;;;;;;;;4956241;29;20084;-57
2022/08/25 11:17:40;;;;;;;10.82;1.90;;;;;;;;;;4959580;28;20073;-56
2022/08/25 11:20:16;;;;;;;12.70;1.48;;;;;;;;;;4975372;28;20030;-58
2022/08/25 11:22:50;;;;;;;7.82;1.85;;;;;;;;;;4974223;28;20027;-57
2022/08/25 11:25:28;;;;;;;9.70;1.45;;;;;;;;;;4974201;28;20041;-56
2022/08/25 11:27:59;;;;;;;9.23;1.92;;;;;;;;;;4974090;28;20019;-54
2022/08/25 11:30:27;;;;;;;12.88;1.60;;;;;;;;;;4974320;28;20544;-56
2022/08/25 11:32:54;;;;;;;11.88;2.10;;;;;;;;;;4973969;28;20485;-55
2022/08/25 11:35:40;;;;;;;6.28;1.60;;;;;;;;;;4973958;28;20043;-56
2022/08/25 11:38:25;;;;;;;10.20;1.70;;;;;;;;;;4973857;28;20078;-58
2022/08/25 11:40:55;;;;;;;12.93;1.83;;;;;;;;;;4975099;28;20027;-57
2022/08/25 11:43:21;;;;;;;7.53;1.63;;;;;;;;;;4974889;28;20098;-58
2022/08/25 11:46:11;;;;;;;8.48;1.70;;;;;;;;;;4973849;28;20371;-58
2022/08/25 11:48:56;;;;;;;4.57;1.40;;;;;;;;;;4974763;28;20106;-57
2022/08/25 11:51:31;;;;;;;8.43;1.70;;;;;;;;;;4973366;28;20030;-55
2022/08/25 11:54:13;;;;;;;9.95;1.38;;;;;;;;;;4987388;28;20027;-56
2022/08/25 11:56:43;;;;;;;8.45;1.70;;;;;;;;;;4985362;28;20037;-56
2022/08/25 11:59:10;;;;;;;9.75;1.75;;;;;;;;;;4976335;28;20372;-56
2022/08/25 12:02:00;;;;;;;7.38;1.20;;;;;;;;;;4973827;28;20041;-54
2022/08/25 12:04:33;;;;;;;11.18;1.40;;;;;;;;;;4974350;28;20035;-58
2022/08/25 12:07:06;;;;;;;10.77;1.83;;;;;;;;;;4974506;28;20066;-57
2022/08/25 12:09:52;;;;;;;10.90;1.73;;;;;;;;;;4973576;28;20034;-57
2022/08/25 12:12:31;;;;;;;15.05;1.95;;;;;;;;;;4973434;28;20089;-60
2022/08/25 12:15:16;;;;;;;11.32;1.55;;;;;;;;;;4973774;28;20029;-60
2022/08/25 12:17:43;;;;;;;12.02;1.75;;;;;;;;;;4971351;28;20038;-58
2022/08/25 12:20:12;;;;;;;11.43;1.30;;;;;;;;;;4973408;28;20039;-59
2022/08/25 12:22:42;;;;;;;11.98;1.77;;;;;;;;;;4973647;28;20030;-61
2022/08/25 12:25:17;;;;;;;12.25;1.80;;;;;;;;;;4974323;28;20034;-57
2022/08/25 12:27:53;;;;;;;12.60;1.90;;;;;;;;;;4956029;28;20018;-60
2022/08/25 12:30:20;;;;;;;7.75;1.70;;;;;;;;;;4975807;28;20027;-60
2022/08/25 12:32:47;;;;;;;6.63;1.45;;;;;;;;;;4965504;28;20037;-60
2022/08/25 12:35:16;;;;;;;20.55;2.42;;;;;;;;;;4993007;28;20116;-59
2022/08/25 12:37:57;;;;;;;19.48;2.03;;;;;;;;;;4990310;28;20038;-60
2022/08/25 12:40:30;;;;;;;11.98;2.08;;;;;;;;;;4972743;28;20053;-56
2022/08/25 12:43:02;;;;;;;15.43;2.38;;;;;;;;;;4972038;28;20034;-54
2022/08/25 12:45:37;;;;;;;17.67;2.50;;;;;;;;;;4973777;28;20041;-56
2022/08/25 12:48:22;;;;;;;15.88;2.58;;;;;;;;;;4971617;28;20023;-60
2022/08/25 12:50:56;;;;;;;12.57;2.20;;;;;;;;;;4972734;28;20098;-61
2022/08/25 12:53:32;;;;;;;18.38;3.08;;;;;;;;;;4974932;28;20037;-62
2022/08/25 12:56:06;;;;;;;15.70;2.20;;;;;;;;;;4971894;28;20500;-65
2022/08/25 12:58:37;;;;;;;16.30;2.13;;;;;;;;;;4969597;28;20027;-63
2022/08/25 13:01:07;;;;;;;15.40;2.67;;;;;;;;;;4973275;28;20026;-58
2022/08/25 13:03:45;;;;;;;11.10;1.80;;;;;;;;;;4975073;28;20065;-60
2022/08/25 13:06:35;;;;;;;12.98;2.40;;;;;;;;;;4974603;28;20400;-63
2022/08/25 13:09:18;;;;;;;12.95;2.10;;;;;;;;;;4971021;28;20057;-65
2022/08/25 13:11:48;;;;;;;15.88;2.38;;;;;;;;;;4972418;28;20492;-64
2022/08/25 13:14:23;;;;;;;12.52;1.85;;;;;;;;;;4974883;28;20145;-66
2022/08/25 13:16:57;;;;;;;11.93;2.20;;;;;;;;;;4974649;28;20038;-63
2022/08/25 13:19:24;;;;;;;10.35;1.92;;;;;;;;;;4971386;28;20034;-60
2022/08/25 13:21:52;;;;;;;16.85;2.22;;;;;;;;;;4974299;28;20125;-61
2022/08/25 13:24:30;;;;;;;11.18;1.92;;;;;;;;;;4972042;28;20036;-63
2022/08/25 13:26:59;;;;;;;14.98;2.15;;;;;;;;;;4974899;28;20014;-62
2022/08/25 13:29:28;;;;;;;11.82;1.98;;;;;;;;;;4972560;28;20487;-62
2022/08/25 13:31:56;;;;;;;9.80;2.00;;;;;;;;;;4970050;28;20024;-61
2022/08/25 13:34:25;;;;;;;16.17;2.13;;;;;;;;;;4972887;28;20054;-60
2022/08/25 13:39:37;;;;;;;7.63;2.05;;;;;;;;;;4972834;28;20034;-58
2022/08/25 13:42:06;;;;;;;9.02;1.80;;;;;;;;;;4971896;28;20022;-62
2022/08/25 13:44:37;;;;;;;11.82;2.05;;;;;;;;;;4974706;28;20540;-61
2022/08/25 13:47:10;;;;;;;11.20;2.30;;;;;;;;;;4980103;28;20572;-61
2022/08/25 13:49:38;;;;;;;10.52;1.95;;;;;;;;;;4953681;28;20488;-61
2022/08/25 13:52:05;;;;;;;9.43;1.50;;;;;;;;;;4975298;28;20019;-60
2022/08/25 13:54:37;;;;;;;12.50;1.67;;;;;;;;;;4980860;28;20085;-61
2022/08/25 13:57:06;;;;;;;12.98;2.28;;;;;;;;;;4975487;28;20461;-59
2022/08/25 13:59:37;;;;;;;11.50;1.77;;;;;;;;;;4966851;28;20035;-60
2022/08/25 14:02:05;;;;;;;14.48;1.77;;;;;;;;;;4961806;28;20038;-60
2022/08/25 14:04:41;;;;;;;11.20;1.83;;;;;;;;;;4956915;29;20082;-59
2022/08/25 14:07:14;;;;;;;15.27;1.85;;;;;;;;;;4957231;29;20030;-58
2022/08/25 14:09:59;;;;;;;12.68;1.85;;;;;;;;;;4956582;29;20094;-59
2022/08/25 14:12:41;;;;;;;17.95;1.88;;;;;;;;;;4956902;29;20027;-61
2022/08/25 14:15:17;;;;;;;15.23;1.40;;;;;;;;;;4956666;29;20046;-59
2022/08/25 14:17:45;;;;;;;12.10;1.80;;;;;;;;;;4957043;29;20066;-60
2022/08/25 14:20:22;;;;;;;10.52;1.30;;;;;;;;;;4956378;29;20035;-57
2022/08/25 14:22:53;;;;;;;13.02;1.95;;;;;;;;;;4956950;29;20370;-58
2022/08/25 14:25:20;;;;;;;18.30;1.88;;;;;;;;;;4956308;29;20027;-60
2022/08/25 14:27:55;;;;;;;19.08;2.00;;;;;;;;;;4956979;29;20035;-55
2022/08/25 14:30:21;;;;;;;10.23;1.80;;;;;;;;;;4955731;29;20520;-51
2022/08/25 14:32:48;;;;;;;20.58;2.47;;;;;;;;;;4956668;29;20024;-53
2022/08/25 14:35:17;;;;;;;17.92;1.75;;;;;;;;;;4955818;28;20047;-56
2022/08/25 14:37:44;;;;;;;13.20;1.88;;;;;;;;;;4961959;28;20057;-56
2022/08/25 14:40:14;;;;;;;13.80;1.75;;;;;;;;;;4970189;28;20026;-53
2022/08/25 14:42:41;;;;;;;16.10;1.98;;;;;;;;;;4961821;28;20039;-56
2022/08/25 14:45:08;;;;;;;17.25;1.70;;;;;;;;;;4957222;28;20022;-54
2022/08/25 14:47:35;;;;;;;14.55;1.85;;;;;;;;;;4962566;28;20035;-57
2022/08/25 14:50:02;;;;;;;15.98;1.75;;;;;;;;;;4965368;28;20082;-54
2022/08/25 14:52:29;;;;;;;20.25;2.00;;;;;;;;;;4975435;28;20031;-55
2022/08/25 14:54:57;;;;;;;16.00;2.00;;;;;;;;;;4972472;28;20035;-55
2022/08/25 14:57:24;;;;;;;14.52;1.70;;;;;;;;;;4975535;28;20034;-56
2022/08/25 14:59:51;;;;;;;19.40;1.85;;;;;;;;;;4975625;28;20058;-57
2022/08/25 15:02:19;;;;;;;16.67;1.90;;;;;;;;;;4975318;28;20066;-57
2022/08/25 15:04:49;;;;;;;16.50;2.05;;;;;;;;;;4974189;28;20528;-56
2022/08/25 15:10:04;;;;;;;17.60;1.90;;;;;;;;;;4975835;28;20077;-55